Time;durP1;ratioP1;P1;durP2;ratioP2;P2;SDS_P1;SDS_P2;PMS_P1;PMS_P2;Temp;Humidity;BMP_temperature;BMP_pressure;BME280_temperature;BME280_humidity;BME280_pressure;Samples;Min_cycle;Max_cycle;Signal;HPM_P1;HPM_P2
2023/04/16 00:00:10;;;;;;;3.65;1.75;;;;;;;15.11;58.67;99366.81;5021741;28;20232;-66
2023/04/16 00:02:35;;;;;;;21.83;6.60;;;;;;;15.08;58.99;99373.38;5021006;28;20372;-66
2023/04/16 00:05:01;;;;;;;12.93;3.85;;;;;;;15.01;59.53;99372.53;5020916;28;20029;-63
2023/04/16 00:07:26;;;;;;;5.72;2.25;;;;;;;15.04;58.00;99377.47;5020263;28;20884;-64
2023/04/16 00:09:52;;;;;;;4.30;2.10;;;;;;;15.06;58.00;99375.41;5022674;28;20124;-66
2023/04/16 00:12:18;;;;;;;4.07;2.10;;;;;;;15.09;58.26;99377.69;5022156;28;20100;-63
2023/04/16 00:14:43;;;;;;;7.00;2.22;;;;;;;14.98;58.04;99355.09;5020894;28;20378;-63
2023/04/16 00:17:09;;;;;;;13.50;4.38;;;;;;;15.15;57.54;99376.06;5020890;28;20080;-66
2023/04/16 00:19:35;;;;;;;19.63;6.53;;;;;;;15.09;57.15;99366.19;5019697;28;20367;-67
2023/04/16 00:22:01;;;;;;;18.83;7.18;;;;;;;15.10;57.16;99360.66;5022409;28;20079;-66
2023/04/16 00:24:26;;;;;;;9.10;2.97;;;;;;;15.02;58.05;99369.66;5021717;28;20133;-66
2023/04/16 00:26:52;;;;;;;6.63;2.85;;;;;;;14.88;57.96;99375.16;5023013;28;20080;-66
2023/04/16 00:29:17;;;;;;;30.77;10.07;;;;;;;14.85;57.90;99372.88;5024940;28;20042;-63
2023/04/16 00:31:43;;;;;;;81.15;22.90;;;;;;;14.85;56.55;99378.19;5023201;28;20267;-63
2023/04/16 00:34:09;;;;;;;16.05;4.93;;;;;;;14.97;56.57;99381.94;5024155;28;20124;-67
2023/04/16 00:36:34;;;;;;;8.38;3.28;;;;;;;15.04;55.93;99379.31;5023156;28;20041;-64
2023/04/16 00:39:00;;;;;;;9.65;4.65;;;;;;;15.06;56.65;99379.94;5022381;28;20041;-67
2023/04/16 00:41:26;;;;;;;13.50;4.10;;;;;;;15.09;57.85;99388.34;5025767;28;20185;-67
2023/04/16 00:43:51;;;;;;;9.25;3.88;;;;;;;15.09;58.38;99387.53;5022117;28;20130;-64
2023/04/16 00:46:22;;;;;;;6.38;2.50;;;;;;;15.04;58.64;99390.78;5022402;28;20053;-66
2023/04/16 00:48:49;;;;;;;6.65;2.90;;;;;;;15.08;59.05;99389.38;5021059;28;20088;-66
2023/04/16 00:51:16;;;;;;;7.07;3.17;;;;;;;15.09;59.03;99392.88;5024051;28;20072;-66
2023/04/16 00:53:43;;;;;;;13.40;5.45;;;;;;;15.08;59.19;99397.38;5022548;28;20104;-66
2023/04/16 00:56:09;;;;;;;20.27;6.05;;;;;;;15.02;59.24;99400.84;5025425;28;20048;-63
2023/04/16 00:58:35;;;;;;;11.48;5.10;;;;;;;14.82;60.26;99394.59;5025975;28;20281;-64
2023/04/16 01:01:01;;;;;;;7.80;3.67;;;;;;;14.73;60.07;99393.13;5026486;28;20037;-63
2023/04/16 01:03:37;;;;;;;5.50;2.58;;;;;;;14.58;60.63;99391.41;5026113;28;20037;-65
2023/04/16 01:06:02;;;;;;;5.15;2.15;;;;;;;14.46;60.93;99389.44;5022144;28;20223;-66
2023/04/16 01:08:28;;;;;;;10.25;3.20;;;;;;;14.38;60.90;99380.56;5026383;28;20108;-64
2023/04/16 01:10:54;;;;;;;7.65;2.80;;;;;;;14.53;60.88;99382.31;5025547;28;20041;-67
2023/04/16 01:13:19;;;;;;;6.80;2.65;;;;;;;14.56;59.69;99390.75;5024537;28;20041;-64
2023/04/16 01:15:45;;;;;;;4.65;2.30;;;;;;;14.62;59.18;99378.50;5023176;28;20072;-64
2023/04/16 01:18:18;;;;;;;7.07;2.92;;;;;;;14.55;59.86;99366.97;5024833;28;20104;-63
2023/04/16 01:20:44;;;;;;;15.73;5.93;;;;;;;14.51;60.50;99381.69;5022259;28;20048;-67
2023/04/16 01:23:10;;;;;;;9.63;3.58;;;;;;;14.39;60.91;99381.38;5021155;28;20045;-66
2023/04/16 01:25:36;;;;;;;6.10;3.30;;;;;;;14.50;60.78;99380.03;5023252;28;20041;-67
2023/04/16 01:28:01;;;;;;;8.90;3.25;;;;;;;14.36;61.03;99371.13;5021032;28;20044;-67
2023/04/16 01:30:27;;;;;;;11.82;4.18;;;;;;;14.44;60.85;99378.97;5025454;28;20061;-64
2023/04/16 01:32:52;;;;;;;11.40;4.63;;;;;;;14.39;60.53;99384.88;5025092;28;20077;-63
2023/04/16 01:35:18;;;;;;;7.13;3.00;;;;;;;14.27;60.82;99388.25;5022904;28;20040;-64
2023/04/16 01:37:44;;;;;;;3.60;1.98;;;;;;;14.34;60.83;99391.78;5020681;28;20096;-64
2023/04/16 01:40:10;;;;;;;4.18;2.65;;;;;;;14.30;60.38;99382.56;5023033;28;20267;-66
2023/04/16 01:42:36;;;;;;;5.63;2.20;;;;;;;14.33;60.23;99384.81;5022768;28;20317;-64
2023/04/16 01:45:02;;;;;;;4.35;2.13;;;;;;;14.35;59.84;99375.63;5022333;28;20033;-63
2023/04/16 01:47:28;;;;;;;5.80;2.97;;;;;;;14.39;59.48;99382.19;5026653;28;20147;-66
2023/04/16 01:49:53;;;;;;;3.67;2.10;;;;;;;14.32;59.57;99385.84;5025298;28;20032;-63
2023/04/16 01:52:19;;;;;;;4.13;2.10;;;;;;;14.26;59.81;99381.28;5025511;28;20374;-64
2023/04/16 01:54:44;;;;;;;3.50;2.70;;;;;;;14.20;59.83;99384.72;5024045;28;20080;-67
2023/04/16 01:57:10;;;;;;;6.10;2.13;;;;;;;14.15;61.05;99387.97;5022973;28;20046;-63
2023/04/16 01:59:35;;;;;;;3.08;2.10;;;;;;;14.24;61.13;99378.00;5023062;28;20104;-66
2023/04/16 02:02:09;;;;;;;3.42;2.45;;;;;;;14.30;59.95;99372.72;5022238;28;20048;-64
2023/04/16 02:04:36;;;;;;;;;;;;;;;14.33;59.93;99369.66;5021843;28;20040;-65
2023/04/16 02:07:01;;;;;;;5.00;2.30;;;;;;;14.41;59.76;99370.53;5025503;28;19934;-63
2023/04/16 02:09:27;;;;;;;4.78;2.53;;;;;;;14.33;59.50;99368.84;5023858;28;20073;-64
2023/04/16 02:11:52;;;;;;;3.75;2.00;;;;;;;14.22;59.46;99359.56;5021675;28;20228;-67
2023/04/16 02:14:18;;;;;;;4.03;2.45;;;;;;;14.20;59.91;99360.78;5025277;28;20042;-64
2023/04/16 02:16:43;;;;;;;12.40;4.38;;;;;;;14.27;60.20;99359.78;5022434;28;20058;-67
2023/04/16 02:19:09;;;;;;;8.77;4.18;;;;;;;14.29;60.20;99359.59;5020705;28;20398;-67
2023/04/16 02:21:34;;;;;;;11.50;5.05;;;;;;;14.28;60.62;99358.78;5022442;28;20037;-63
2023/04/16 02:24:00;;;;;;;10.60;4.43;;;;;;;14.10;61.23;99360.28;5024463;28;20040;-64
2023/04/16 02:26:25;;;;;;;13.52;5.32;;;;;;;14.19;61.29;99365.28;5023481;28;20363;-64
2023/04/16 02:28:51;;;;;;;4.93;2.95;;;;;;;14.14;61.24;99365.03;5021849;28;20060;-66
2023/04/16 02:31:18;;;;;;;6.00;3.08;;;;;;;14.12;61.82;99363.59;5020610;28;20049;-64
2023/04/16 02:33:44;;;;;;;3.60;2.63;;;;;;;14.06;61.71;99352.69;5021590;28;20283;-66
2023/04/16 02:36:10;;;;;;;7.10;2.45;;;;;;;14.10;61.47;99373.59;5023927;28;20172;-66
2023/04/16 02:38:36;;;;;;;4.63;2.50;;;;;;;14.02;61.75;99369.25;5023100;28;20103;-63
2023/04/16 02:41:02;;;;;;;5.00;2.45;;;;;;;14.00;61.93;99374.75;5021730;28;20108;-64
2023/04/16 02:43:27;;;;;;;3.92;2.35;;;;;;;13.93;61.99;99367.75;5021262;28;20030;-63
2023/04/16 02:45:53;;;;;;;3.60;2.35;;;;;;;13.85;62.26;99382.00;5024282;28;20046;-64
2023/04/16 02:48:18;;;;;;;5.05;2.20;;;;;;;13.78;62.13;99386.44;5020371;28;20057;-64
2023/04/16 02:50:44;;;;;;;3.83;2.42;;;;;;;13.76;62.01;99379.69;5021554;28;20060;-64
2023/04/16 02:53:09;;;;;;;4.45;2.35;;;;;;;13.69;61.99;99382.28;5021535;28;20307;-66
2023/04/16 02:55:35;;;;;;;3.53;2.40;;;;;;;13.62;62.39;99389.38;5019195;28;20080;-66
2023/04/16 02:58:00;;;;;;;2.95;2.30;;;;;;;13.55;62.02;99391.97;5021574;28;20068;-64
2023/04/16 03:00:26;;;;;;;5.95;2.83;;;;;;;13.55;62.21;99397.28;5021728;28;20033;-63
2023/04/16 03:02:52;;;;;;;5.03;2.58;;;;;;;13.36;62.84;99395.22;5021408;28;20320;-64
2023/04/16 03:05:17;;;;;;;4.90;2.50;;;;;;;13.38;62.74;99395.84;5024115;28;20033;-66
2023/04/16 03:07:43;;;;;;;5.60;2.40;;;;;;;13.39;63.35;99397.50;5023195;28;20405;-63
2023/04/16 03:10:09;;;;;;;3.72;2.53;;;;;;;13.30;63.64;99388.00;5019655;28;20107;-67
2023/04/16 03:12:35;;;;;;;10.25;4.85;;;;;;;13.35;63.31;99398.88;5024707;28;20042;-65
2023/04/16 03:15:01;;;;;;;8.13;4.63;;;;;;;13.30;63.65;99398.63;5022469;28;20501;-66
2023/04/16 03:17:26;;;;;;;9.20;4.75;;;;;;;12.98;64.76;99394.53;5021975;28;20161;-63
2023/04/16 03:19:52;;;;;;;12.10;4.20;;;;;;;13.00;64.59;99389.88;5020875;28;20045;-63
2023/04/16 03:22:17;;;;;;;4.30;2.65;;;;;;;13.07;65.01;99396.09;5024188;28;20036;-66
2023/04/16 03:24:43;;;;;;;9.55;4.20;;;;;;;13.28;63.86;99382.03;5019747;28;20034;-63
2023/04/16 03:27:08;;;;;;;6.28;2.67;;;;;;;13.34;63.62;99391.91;5019251;28;20036;-63
2023/04/16 03:29:37;;;;;;;3.22;2.15;;;;;;;13.30;63.72;99394.13;5023443;28;20037;-66
2023/04/16 03:32:03;;;;;;;3.78;2.10;;;;;;;13.37;63.20;99397.69;5020629;28;20067;-67
2023/04/16 03:34:28;;;;;;;4.10;2.20;;;;;;;13.37;62.41;99394.19;5019890;28;20332;-67
2023/04/16 03:36:54;;;;;;;4.10;2.05;;;;;;;13.42;62.52;99389.97;5024190;28;20199;-64
2023/04/16 03:39:19;;;;;;;59.83;16.13;;;;;;;13.55;61.99;99394.63;5024217;28;20264;-63
2023/04/16 03:41:45;;;;;;;14.60;7.18;;;;;;;13.60;62.12;99407.34;5020378;28;20061;-64
2023/04/16 03:44:10;;;;;;;18.60;9.18;;;;;;;13.60;62.16;99412.69;5020126;28;20076;-64
2023/04/16 03:46:36;;;;;;;9.75;4.60;;;;;;;13.67;62.73;99413.56;5022847;28;20041;-66
2023/04/16 03:49:01;;;;;;;7.72;3.85;;;;;;;13.76;63.03;99408.94;5027702;28;20076;-66
2023/04/16 03:51:27;;;;;;;5.32;3.40;;;;;;;13.76;62.75;99411.59;5019884;28;20033;-65
2023/04/16 03:53:52;;;;;;;7.07;3.30;;;;;;;13.69;62.64;99414.19;5020210;28;20045;-65
2023/04/16 03:56:18;;;;;;;5.88;3.45;;;;;;;13.77;63.08;99419.41;5024184;28;20149;-66
2023/04/16 03:58:43;;;;;;;6.63;3.65;;;;;;;13.84;63.30;99416.78;5021542;28;20150;-69
2023/04/16 04:01:09;;;;;;;6.47;3.50;;;;;;;13.83;63.20;99418.63;5022886;28;20049;-69
2023/04/16 04:03:35;;;;;;;4.10;2.70;;;;;;;13.81;63.22;99418.00;5025938;28;20030;-68
2023/04/16 04:06:00;;;;;;;7.13;3.20;;;;;;;13.82;63.12;99424.97;5023850;28;20037;-65
2023/04/16 04:08:26;;;;;;;8.02;2.83;;;;;;;13.76;63.35;99431.06;5024202;28;20033;-65
2023/04/16 04:10:51;;;;;;;8.95;4.30;;;;;;;13.66;62.85;99427.88;5025306;28;20040;-65
2023/04/16 04:13:17;;;;;;;5.90;3.30;;;;;;;13.58;63.24;99433.31;5022756;28;20034;-68
2023/04/16 04:15:43;;;;;;;8.32;4.35;;;;;;;13.55;63.63;99426.56;5025062;28;20053;-65
2023/04/16 04:18:08;;;;;;;10.48;5.53;;;;;;;13.35;63.91;99423.66;5024122;28;20286;-68
2023/04/16 04:20:38;;;;;;;8.10;4.35;;;;;;;13.03;65.57;99429.38;5022236;28;20030;-65
2023/04/16 04:23:04;;;;;;;7.68;4.00;;;;;;;12.96;65.72;99421.31;5024370;28;20076;-66
2023/04/16 04:25:29;;;;;;;6.63;3.30;;;;;;;12.89;66.28;99414.25;5027835;28;20033;-66
2023/04/16 04:27:55;;;;;;;8.13;3.08;;;;;;;13.01;66.20;99420.75;5024422;28;20208;-66
2023/04/16 04:30:20;;;;;;;6.97;3.22;;;;;;;13.16;65.52;99415.41;5023916;28;20113;-65
2023/04/16 04:32:46;;;;;;;6.90;3.47;;;;;;;13.27;65.65;99418.44;5026587;28;20049;-66
2023/04/16 04:35:11;;;;;;;13.63;6.30;;;;;;;13.51;65.29;99432.41;5025141;28;20040;-65
2023/04/16 04:37:37;;;;;;;4.93;3.25;;;;;;;13.16;67.76;99442.00;5022721;28;20621;-65
2023/04/16 04:40:03;;;;;;;8.27;3.97;;;;;;;12.99;70.04;99442.19;5024452;28;20326;-68
2023/04/16 04:42:28;;;;;;;4.07;3.60;;;;;;;13.26;68.91;99427.44;5024497;28;20057;-68
2023/04/16 04:44:54;;;;;;;10.40;6.85;;;;;;;13.24;68.25;99420.66;5027240;28;20105;-68
2023/04/16 04:47:19;;;;;;;9.32;5.22;;;;;;;13.36;67.44;99419.97;5026320;28;20038;-65
2023/04/16 04:49:45;;;;;;;10.70;6.00;;;;;;;13.47;67.30;99434.63;5025394;28;20046;-69
2023/04/16 04:52:10;;;;;;;11.40;6.90;;;;;;;13.48;67.70;99435.44;5022824;28;20045;-65
2023/04/16 04:54:40;;;;;;;8.77;6.05;;;;;;;13.71;67.66;99441.44;5025002;28;20108;-65
2023/04/16 04:57:06;;;;;;;8.30;5.60;;;;;;;13.88;67.25;99448.16;5022208;28;20133;-66
2023/04/16 04:59:31;;;;;;;7.53;4.97;;;;;;;13.98;66.39;99442.53;5025586;28;20310;-68
2023/04/16 05:01:57;;;;;;;9.50;4.97;;;;;;;14.07;66.97;99452.84;5025901;28;20317;-66
2023/04/16 05:04:22;;;;;;;7.57;4.78;;;;;;;13.88;67.29;99440.19;5022684;28;20029;-65
2023/04/16 05:06:48;;;;;;;6.25;4.10;;;;;;;13.67;66.63;99442.84;5024272;28;20115;-68
2023/04/16 05:09:13;;;;;;;7.50;4.63;;;;;;;13.68;67.30;99436.50;5023413;28;20359;-65
2023/04/16 05:11:40;;;;;;;7.15;4.20;;;;;;;13.64;68.38;99433.41;5022582;28;20049;-65
2023/04/16 05:14:06;;;;;;;5.47;3.80;;;;;;;13.61;68.92;99446.25;5025323;28;20347;-69
2023/04/16 05:16:31;;;;;;;8.60;3.88;;;;;;;13.53;70.41;99438.38;5023022;28;20049;-65
2023/04/16 05:18:57;;;;;;;6.40;4.40;;;;;;;13.49;70.24;99442.41;5022596;28;20060;-66
2023/04/16 05:21:25;;;;;;;6.03;4.38;;;;;;;13.54;70.80;99450.69;5024108;28;20033;-65
2023/04/16 05:23:52;;;;;;;6.97;5.68;;;;;;;13.58;70.82;99458.09;5033223;28;20116;-68
2023/04/16 05:26:17;;;;;;;6.15;4.53;;;;;;;13.73;70.28;99464.19;5038141;28;20507;-65
2023/04/16 05:28:43;;;;;;;8.27;4.60;;;;;;;13.83;70.24;99458.56;5039587;28;20072;-68
2023/04/16 05:31:08;;;;;;;7.30;4.35;;;;;;;13.94;69.16;99468.69;5039276;28;20076;-63
2023/04/16 05:33:34;;;;;;;7.50;3.90;;;;;;;13.92;69.34;99462.75;5039279;28;20257;-68
2023/04/16 05:35:59;;;;;;;5.65;4.05;;;;;;;13.93;68.85;99458.25;5039458;28;20083;-68
2023/04/16 05:38:25;;;;;;;6.38;3.50;;;;;;;13.73;68.45;99468.69;5039352;28;20104;-65
2023/04/16 05:40:50;;;;;;;7.18;3.90;;;;;;;13.82;68.79;99461.41;5039763;28;20044;-65
2023/04/16 05:43:16;;;;;;;7.68;3.53;;;;;;;13.67;69.09;99464.94;5039454;28;20036;-68
2023/04/16 05:45:42;;;;;;;8.75;3.28;;;;;;;13.65;70.19;99459.00;5039282;28;20067;-66
2023/04/16 05:48:08;;;;;;;7.07;3.78;;;;;;;13.44;71.51;99453.59;5039574;28;20045;-68
2023/04/16 05:50:34;;;;;;;7.40;3.80;;;;;;;13.53;71.51;99449.03;5039385;28;20037;-66
2023/04/16 05:53:01;;;;;;;8.18;4.20;;;;;;;13.81;70.64;99446.44;5039611;28;20041;-66
2023/04/16 05:55:26;;;;;;;6.45;4.00;;;;;;;14.12;69.85;99446.94;5039930;28;20029;-68
2023/04/16 05:57:52;;;;;;;6.85;3.83;;;;;;;14.42;68.48;99452.94;5040050;28;20255;-65
2023/04/16 06:00:17;;;;;;;6.22;3.90;;;;;;;14.35;66.93;99446.72;5039874;28;20037;-67
2023/04/16 06:02:43;;;;;;;4.70;3.13;;;;;;;14.66;66.19;99459.69;5040115;28;20595;-64
2023/04/16 06:05:08;;;;;;;7.78;3.38;;;;;;;15.14;65.41;99459.75;5040381;28;20033;-67
2023/04/16 06:07:34;;;;;;;6.07;3.30;;;;;;;15.44;63.29;99452.28;5040216;28;20040;-63
2023/04/16 06:10:00;;;;;;;8.23;3.45;;;;;;;15.34;61.32;99453.47;5039189;28;20045;-67
2023/04/16 06:12:26;;;;;;;5.22;2.78;;;;;;;15.75;60.00;99459.81;5040231;28;20029;-63
2023/04/16 06:14:51;;;;;;;4.38;3.53;;;;;;;16.19;59.15;99454.72;5039099;28;20064;-64
2023/04/16 06:17:18;;;;;;;4.43;3.08;;;;;;;16.69;56.92;99446.31;5039140;28;20049;-66
2023/04/16 06:19:43;;;;;;;7.13;3.13;;;;;;;16.94;55.88;99441.94;5027064;28;20036;-67
2023/04/16 06:22:09;;;;;;;7.90;4.05;;;;;;;16.90;56.91;99432.69;5021987;28;20029;-67
2023/04/16 06:24:35;;;;;;;6.60;3.00;;;;;;;16.79;56.88;99428.81;5023732;28;20037;-64
2023/04/16 06:27:00;;;;;;;5.55;4.15;;;;;;;16.59;56.94;99431.47;5021987;28;20070;-64
2023/04/16 06:29:25;;;;;;;7.38;3.13;;;;;;;16.76;56.60;99431.09;5019548;28;20041;-64
2023/04/16 06:31:51;;;;;;;4.85;2.97;;;;;;;16.48;55.62;99436.63;5022116;28;20065;-66
2023/04/16 06:34:16;;;;;;;7.35;3.15;;;;;;;16.26;57.62;99438.69;5020104;28;20038;-63
2023/04/16 06:36:42;;;;;;;3.30;2.70;;;;;;;15.92;61.16;99453.06;5024832;28;20032;-67
2023/04/16 06:39:07;;;;;;;6.72;2.95;;;;;;;16.49;58.87;99446.28;5020662;28;20037;-67
2023/04/16 06:41:33;;;;;;;6.35;3.25;;;;;;;16.75;57.65;99434.78;5022183;28;20251;-65
2023/04/16 06:43:58;;;;;;;5.78;2.70;;;;;;;17.03;57.01;99434.50;5029887;28;20228;-65
2023/04/16 06:46:24;;;;;;;6.53;2.90;;;;;;;17.10;54.54;99443.31;5018875;28;20026;-64
2023/04/16 06:48:49;;;;;;;8.30;3.00;;;;;;;17.24;56.42;99439.56;5019744;28;20052;-66
2023/04/16 06:51:15;;;;;;;5.35;2.88;;;;;;;17.29;54.76;99439.75;5020974;28;20057;-63
2023/04/16 06:53:41;;;;;;;5.13;2.60;;;;;;;17.56;53.82;99443.09;5020065;28;20045;-66
2023/04/16 06:56:07;;;;;;;5.45;2.55;;;;;;;17.73;53.81;99444.31;5021130;28;20084;-64
2023/04/16 06:58:32;;;;;;;3.95;2.22;;;;;;;17.12;53.41;99444.75;5020851;28;20109;-64
2023/04/16 07:00:58;;;;;;;6.43;2.70;;;;;;;17.44;54.29;99440.28;5020152;28;20034;-66
2023/04/16 07:03:23;;;;;;;5.22;2.72;;;;;;;17.74;53.03;99442.44;5024408;28;20033;-66
2023/04/16 07:05:49;;;;;;;6.35;2.33;;;;;;;17.48;54.12;99441.50;5022690;28;20063;-67
2023/04/16 07:08:14;;;;;;;8.63;2.80;;;;;;;17.80;52.11;99444.25;5021594;28;20030;-67
2023/04/16 07:10:40;;;;;;;3.53;3.15;;;;;;;18.34;51.50;99430.22;5022934;28;20038;-67
2023/04/16 07:13:05;;;;;;;3.80;2.60;;;;;;;18.05;52.24;99431.72;5021533;28;20044;-69
2023/04/16 07:15:31;;;;;;;5.90;2.58;;;;;;;17.91;53.01;99434.72;5019680;28;20035;-69
2023/04/16 07:17:56;;;;;;;7.25;3.10;;;;;;;17.94;53.04;99432.41;5019581;28;20053;-69
2023/04/16 07:20:22;;;;;;;5.75;2.63;;;;;;;18.27;52.01;99439.38;5022385;28;20190;-66
2023/04/16 07:22:48;;;;;;;4.07;2.78;;;;;;;18.37;51.03;99432.47;5020377;28;20030;-66
2023/04/16 07:25:13;;;;;;;5.32;2.90;;;;;;;17.88;51.58;99445.84;5021472;28;20033;-69
2023/04/16 07:27:39;;;;;;;8.32;2.83;;;;;;;18.51;51.26;99436.69;5020667;28;20041;-69
2023/04/16 07:30:05;;;;;;;4.03;2.60;;;;;;;18.56;52.08;99435.19;5022485;28;20327;-66
2023/04/16 07:32:30;;;;;;;4.90;2.50;;;;;;;18.46;51.59;99430.34;5022989;28;20033;-67
2023/04/16 07:34:56;;;;;;;4.80;2.80;;;;;;;18.40;50.85;99425.84;5022975;28;20553;-69
2023/04/16 07:37:22;;;;;;;5.43;3.00;;;;;;;18.22;50.99;99417.78;5020276;28;20029;-69
2023/04/16 07:39:47;;;;;;;4.45;2.88;;;;;;;18.27;52.88;99412.56;5020042;28;20033;-69
2023/04/16 07:42:13;;;;;;;5.10;2.72;;;;;;;18.11;52.90;99417.44;5021945;28;20065;-69
2023/04/16 07:44:38;;;;;;;4.53;2.55;;;;;;;17.93;52.49;99419.25;5022103;28;20041;-69
2023/04/16 07:47:04;;;;;;;4.45;2.60;;;;;;;17.62;53.15;99417.31;5019363;28;20101;-69
2023/04/16 07:49:30;;;;;;;4.78;2.75;;;;;;;17.74;51.99;99421.03;5022199;28;20272;-69
2023/04/16 07:51:56;;;;;;;5.43;2.70;;;;;;;17.29;53.85;99394.25;5027349;28;20037;-66
2023/04/16 07:54:21;;;;;;;8.18;2.85;;;;;;;17.36;54.30;99419.13;5019767;28;20030;-69
2023/04/16 07:56:47;;;;;;;3.72;2.47;;;;;;;17.00;56.92;99406.31;5021075;28;20052;-69
2023/04/16 07:59:12;;;;;;;8.82;3.35;;;;;;;16.94;56.56;99412.50;5020723;28;20041;-66
2023/04/16 08:01:38;;;;;;;3.33;2.22;;;;;;;16.45;56.46;99419.16;5021384;28;20242;-67
2023/04/16 08:04:03;;;;;;;3.33;2.65;;;;;;;16.42;56.23;99418.75;5020654;28;20379;-64
2023/04/16 08:06:29;;;;;;;5.13;2.30;;;;;;;16.19;57.95;99425.34;5022141;28;20053;-66
2023/04/16 08:08:55;;;;;;;4.75;2.38;;;;;;;16.26;57.30;99418.16;5021692;28;20057;-65
2023/04/16 08:11:20;;;;;;;5.57;2.17;;;;;;;16.12;59.49;99416.50;5019887;28;20037;-67
2023/04/16 08:13:46;;;;;;;5.95;2.95;;;;;;;16.14;57.82;99417.13;5021967;28;20064;-66
2023/04/16 08:16:11;;;;;;;5.32;2.60;;;;;;;16.24;58.41;99414.03;5021808;28;20049;-66
2023/04/16 08:18:37;;;;;;;4.50;2.20;;;;;;;15.99;59.01;99421.03;5023481;28;20073;-66
2023/04/16 08:21:02;;;;;;;5.50;2.60;;;;;;;15.94;59.72;99424.31;5023724;28;20030;-64
2023/04/16 08:23:28;;;;;;;5.22;2.40;;;;;;;15.96;60.65;99427.59;5019760;28;20033;-64
2023/04/16 08:25:54;;;;;;;5.22;2.20;;;;;;;16.09;58.81;99416.91;5017703;28;20041;-66
2023/04/16 08:28:19;;;;;;;5.10;2.28;;;;;;;15.95;60.46;99433.97;5019791;28;20037;-64
2023/04/16 08:30:45;;;;;;;6.45;2.90;;;;;;;15.92;61.75;99427.19;5018463;28;20029;-66
2023/04/16 08:33:12;;;;;;;4.32;2.55;;;;;;;16.04;61.73;99431.91;5021478;28;20045;-63
2023/04/16 08:35:38;;;;;;;8.20;2.47;;;;;;;15.90;62.38;99433.75;5019704;28;20037;-64
2023/04/16 08:38:04;;;;;;;4.75;2.30;;;;;;;16.00;61.95;99428.84;5022352;28;20038;-65
2023/04/16 08:40:30;;;;;;;5.80;3.33;;;;;;;16.23;60.64;99425.75;5018476;28;20041;-69
2023/04/16 08:42:59;;;;;;;6.97;3.15;;;;;;;16.47;59.76;99419.78;5019354;28;20041;-66
2023/04/16 08:45:26;;;;;;;3.70;2.03;;;;;;;16.61;55.15;99416.03;5022235;28;20061;-66
2023/04/16 08:47:52;;;;;;;3.10;1.98;;;;;;;16.56;55.76;99404.34;5022830;28;20060;-69
2023/04/16 08:50:27;;;;;;;5.63;2.30;;;;;;;16.72;56.18;99400.44;5024676;28;20049;-65
2023/04/16 08:53:06;;;;;;;5.35;2.42;;;;;;;16.99;55.88;99406.53;5023458;28;20072;-69
2023/04/16 08:55:37;;;;;;;5.45;2.20;;;;;;;16.91;56.70;99399.56;5025484;28;20105;-66
2023/04/16 08:58:07;;;;;;;4.07;2.13;;;;;;;17.00;55.63;99400.16;5023880;28;20404;-68
2023/04/16 09:00:34;;;;;;;5.50;2.80;;;;;;;17.17;54.68;99393.28;5026186;28;20038;-69
2023/04/16 09:03:01;;;;;;;6.20;2.55;;;;;;;17.19;53.63;99386.69;5025361;28;20037;-65
2023/04/16 09:05:28;;;;;;;5.68;2.80;;;;;;;17.38;53.68;99386.78;5021208;28;20026;-65
2023/04/16 09:07:53;;;;;;;8.05;2.92;;;;;;;17.44;52.55;99377.91;5022744;28;20279;-67
2023/04/16 09:10:19;;;;;;;4.28;2.60;;;;;;;17.47;51.26;99382.81;5022106;28;20033;-66
2023/04/16 09:12:45;;;;;;;5.53;2.33;;;;;;;17.80;49.96;99367.41;5024871;28;20071;-66
2023/04/16 09:15:12;;;;;;;3.47;2.40;;;;;;;17.91;50.85;99365.88;5025324;28;20060;-68
2023/04/16 09:17:38;;;;;;;3.47;2.30;;;;;;;18.12;52.88;99364.69;5021798;28;20161;-66
2023/04/16 09:20:07;;;;;;;2.75;2.35;;;;;;;18.45;50.10;99354.44;5030834;28;20236;-68
2023/04/16 09:22:36;;;;;;;4.60;2.30;;;;;;;18.18;48.91;99347.72;5030323;28;20029;-66
2023/04/16 09:25:01;;;;;;;3.97;2.53;;;;;;;18.29;48.99;99349.66;5024938;28;20037;-66
2023/04/16 09:27:27;;;;;;;4.53;2.58;;;;;;;18.31;48.53;99342.22;5023843;28;20251;-66
2023/04/16 09:29:52;;;;;;;4.20;2.30;;;;;;;18.48;47.10;99340.59;5020592;28;20045;-68
2023/04/16 09:32:25;;;;;;;4.22;2.03;;;;;;;18.35;47.12;99345.28;5023073;28;20089;-65
2023/04/16 09:34:57;;;;;;;3.92;2.22;;;;;;;18.37;47.55;99349.38;5024598;28;20080;-69
2023/04/16 09:37:28;;;;;;;2.50;2.30;;;;;;;18.43;46.54;99339.63;5020919;28;20045;-66
2023/04/16 09:40:02;;;;;;;3.67;2.00;;;;;;;18.24;46.51;99336.13;5029650;28;20049;-67
2023/04/16 09:42:31;;;;;;;2.78;1.50;;;;;;;18.29;47.26;99341.63;5024468;28;20044;-68
2023/04/16 09:44:57;;;;;;;5.50;2.10;;;;;;;18.32;47.29;99327.78;5024437;28;20036;-66
2023/04/16 09:47:25;;;;;;;5.20;1.75;;;;;;;18.54;48.88;99333.53;5022994;28;20322;-66
2023/04/16 09:49:51;;;;;;;4.47;2.35;;;;;;;18.43;47.39;99331.59;5022141;28;20446;-66
2023/04/16 09:52:21;;;;;;;2.90;1.90;;;;;;;18.61;47.22;99331.63;5023749;28;20385;-69
2023/04/16 09:54:56;;;;;;;5.45;2.20;;;;;;;18.56;50.31;99334.13;5023771;28;20034;-66
2023/04/16 09:57:23;;;;;;;5.57;2.30;;;;;;;18.44;49.00;99326.00;5023327;28;20037;-68
2023/04/16 09:59:56;;;;;;;3.53;1.92;;;;;;;18.58;49.55;99328.53;5020129;28;20107;-66
2023/04/16 10:02:26;;;;;;;3.72;2.03;;;;;;;18.42;52.08;99314.69;5025188;28;20021;-66
2023/04/16 10:04:52;;;;;;;5.85;2.13;;;;;;;18.27;50.44;99321.44;5023416;28;20339;-66
2023/04/16 10:07:18;;;;;;;6.55;2.30;;;;;;;18.19;55.25;99315.34;5021951;28;20436;-65
2023/04/16 10:09:47;;;;;;;5.60;2.10;;;;;;;18.31;54.17;99322.66;5021104;28;20080;-68
2023/04/16 10:12:13;;;;;;;3.65;2.15;;;;;;;17.97;52.94;99314.13;5023944;28;20029;-66
2023/04/16 10:14:40;;;;;;;4.78;2.00;;;;;;;18.26;53.88;99315.28;5025772;28;20041;-68
2023/04/16 10:17:06;;;;;;;6.00;2.20;;;;;;;18.39;51.77;99317.00;5023244;28;20091;-69
2023/04/16 10:19:33;;;;;;;4.30;2.25;;;;;;;18.44;55.42;99317.97;5022850;28;20052;-66
2023/04/16 10:22:00;;;;;;;4.28;2.00;;;;;;;18.12;54.73;99319.94;5021151;28;20030;-66
2023/04/16 10:24:27;;;;;;;4.28;1.75;;;;;;;18.12;52.24;99303.06;5020360;28;20133;-67
2023/04/16 10:26:53;;;;;;;4.60;2.60;;;;;;;18.14;52.54;99314.38;5021304;28;20052;-66
2023/04/16 10:29:20;;;;;;;4.53;2.22;;;;;;;18.26;49.88;99309.91;5022933;28;20105;-68
2023/04/16 10:31:47;;;;;;;7.18;2.33;;;;;;;18.32;50.49;99303.66;5020559;28;20087;-65
2023/04/16 10:34:13;;;;;;;4.20;2.30;;;;;;;18.63;50.38;99294.66;5022903;28;20044;-69
2023/04/16 10:36:39;;;;;;;6.25;2.20;;;;;;;18.90;49.91;99300.56;5024147;28;20041;-66
2023/04/16 10:39:10;;;;;;;5.90;2.45;;;;;;;18.84;51.45;99298.78;5021684;28;20100;-68
2023/04/16 10:41:36;;;;;;;4.75;2.47;;;;;;;18.73;51.54;99311.09;5019436;28;20393;-66
2023/04/16 10:44:08;;;;;;;4.65;2.30;;;;;;;18.66;52.59;99307.63;5024964;28;20044;-66
2023/04/16 10:46:42;;;;;;;8.18;2.65;;;;;;;18.55;52.55;99299.50;5024017;28;20041;-69
2023/04/16 10:49:13;;;;;;;7.07;2.58;;;;;;;18.72;52.33;99297.88;5021161;28;20217;-69
2023/04/16 10:51:39;;;;;;;5.40;2.33;;;;;;;19.01;51.89;99302.47;5025279;28;20041;-67
2023/04/16 10:54:08;;;;;;;11.38;2.50;;;;;;;19.08;50.53;99305.88;5026173;28;20049;-67
2023/04/16 10:56:36;;;;;;;6.50;2.80;;;;;;;19.30;52.03;99300.00;5024461;28;20116;-67
2023/04/16 10:59:05;;;;;;;4.40;2.35;;;;;;;19.40;51.20;99298.38;5022772;28;20113;-68
2023/04/16 11:01:36;;;;;;;7.03;2.45;;;;;;;19.49;52.67;99296.19;5019055;28;20038;-66
2023/04/16 11:04:20;;;;;;;6.65;2.35;;;;;;;19.46;55.63;99300.16;5021794;28;20068;-66
2023/04/16 11:07:04;;;;;;;;;;;;;;;19.17;56.94;99290.25;5019808;28;20039;-65
2023/04/16 11:10:04;;;;;;;7.78;2.33;;;;;;;19.13;57.16;99283.72;5019130;28;19984;-68
2023/04/16 11:12:45;;;;;;;5.88;3.08;;;;;;;19.04;56.86;99288.59;5018919;28;20266;-66
2023/04/16 11:15:15;;;;;;;9.45;2.92;;;;;;;19.14;58.19;99278.13;5021122;28;20068;-69
2023/04/16 11:17:45;;;;;;;6.55;2.90;;;;;;;19.30;61.18;99278.50;5021429;28;20282;-69
2023/04/16 11:20:25;;;;;;;6.47;3.25;;;;;;;19.37;60.40;99280.06;5021059;28;20049;-69
2023/04/16 11:22:53;;;;;;;7.63;2.75;;;;;;;19.52;61.07;99262.69;5019477;28;20044;-69
2023/04/16 11:25:32;;;;;;;7.10;3.28;;;;;;;19.74;61.75;99280.72;5027972;28;20072;-67
2023/04/16 11:27:58;;;;;;;6.22;3.25;;;;;;;19.63;60.43;99269.97;5022023;28;20037;-66
2023/04/16 11:30:35;;;;;;;5.63;2.42;;;;;;;19.61;60.21;99261.31;5020912;28;20302;-65